Time;durP1;ratioP1;P1;durP2;ratioP2;P2;SDS_P1;SDS_P2;PMS_P1;PMS_P2;Temp;Humidity;BMP_temperature;BMP_pressure;BME280_temperature;BME280_humidity;BME280_pressure;Samples;Min_cycle;Max_cycle;Signal;HPM_P1;HPM_P2
2023/02/14 00:02:05;;;;;;;27.50;12.25;;;1.00;1.00;;;;;;5050112;28;20385;-57
2023/02/14 00:04:31;;;;;;;28.10;10.75;;;1.00;1.00;;;;;;5050840;28;20423;-57
2023/02/14 00:06:57;;;;;;;31.05;11.90;;;0.90;1.00;;;;;;5051010;28;20405;-57
2023/02/14 00:09:22;;;;;;;29.00;10.63;;;1.00;1.00;;;;;;5050407;28;20388;-57
2023/02/14 00:11:49;;;;;;;27.00;12.00;;;1.00;1.00;;;;;;5050737;28;20404;-57
2023/02/14 00:17:00;;;;;;;27.90;10.90;;;1.00;1.00;;;;;;5049851;28;20378;-57
2023/02/14 00:19:26;;;;;;;27.10;10.80;;;1.10;1.00;;;;;;5050378;28;20381;-57
2023/02/14 00:21:52;;;;;;;26.90;12.05;;;1.10;1.00;;;;;;5050531;28;20386;-58
2023/02/14 00:24:21;;;;;;;27.77;11.23;;;1.10;1.00;;;;;;5050103;28;20739;-57
2023/02/14 00:26:48;;;;;;;31.38;12.57;;;1.10;1.00;;;;;;5050729;28;20500;-57
2023/02/14 00:29:17;;;;;;;27.23;10.95;;;1.10;1.00;;;;;;5049647;28;20373;-57
2023/02/14 00:31:43;;;;;;;27.40;10.35;;;1.10;1.00;;;;;;5050807;28;20851;-57
2023/02/14 00:34:10;;;;;;;29.98;11.90;;;1.00;1.00;;;;;;5049585;28;20377;-57
2023/02/14 00:36:36;;;;;;;25.42;9.95;;;1.00;1.00;;;;;;5050500;28;20435;-57
2023/02/14 00:39:03;;;;;;;31.23;12.18;;;1.10;1.00;;;;;;5049329;28;20397;-57
2023/02/14 00:41:29;;;;;;;27.63;10.50;;;1.10;1.00;;;;;;5050172;28;20374;-57
2023/02/14 00:43:55;;;;;;;27.70;10.32;;;1.00;1.00;;;;;;5049883;28;20381;-57
2023/02/14 00:46:22;;;;;;;29.70;11.53;;;1.00;1.00;;;;;;5049478;28;21205;-56
2023/02/14 00:48:48;;;;;;;32.10;12.00;;;0.90;1.00;;;;;;5050151;28;20401;-57
2023/02/14 00:51:17;;;;;;;25.43;9.80;;;0.90;1.00;;;;;;5049267;28;20854;-57
2023/02/14 00:53:43;;;;;;;26.38;11.05;;;0.90;1.00;;;;;;5049998;28;20386;-57
2023/02/14 00:56:09;;;;;;;27.45;9.95;;;0.90;1.00;;;;;;5049481;28;20451;-57
2023/02/14 00:58:34;;;;;;;27.33;11.40;;;0.80;1.00;;;;;;5050152;28;20397;-57
2023/02/14 01:01:00;;;;;;;28.00;11.18;;;0.80;1.00;;;;;;5049668;28;20382;-57
2023/02/14 01:03:26;;;;;;;33.00;12.50;;;0.80;1.00;;;;;;5049565;28;20386;-57
2023/02/14 01:05:52;;;;;;;34.72;12.90;;;0.80;1.00;;;;;;5049776;28;20777;-57
2023/02/14 01:08:19;;;;;;;30.85;12.27;;;0.90;1.00;;;;;;5049403;28;20495;-57
2023/02/14 01:10:45;;;;;;;26.15;12.23;;;0.80;1.00;;;;;;5049528;28;20392;-57
2023/02/14 01:13:12;;;;;;;26.80;11.15;;;0.90;1.00;;;;;;5049284;28;20451;-57
2023/02/14 01:15:46;;;;;;;31.70;12.07;;;0.80;1.00;;;;;;5049900;28;20381;-56
2023/02/14 01:18:12;;;;;;;27.45;11.82;;;2.60;1.00;;;;;;5049132;28;20409;-57
2023/02/14 01:20:38;;;;;;;33.55;13.23;;;0.80;1.00;;;;;;5049731;28;20822;-57
2023/02/14 01:23:04;;;;;;;34.33;13.03;;;0.80;1.00;;;;;;5049118;28;20777;-58
2023/02/14 01:25:30;;;;;;;31.17;10.93;;;0.80;1.00;;;;;;5049410;28;20421;-57
2023/02/14 01:27:56;;;;;;;30.30;12.52;;;0.80;1.00;;;;;;5048035;28;20424;-57
2023/02/14 01:30:21;;;;;;;30.30;12.30;;;0.70;1.00;;;;;;5048858;28;20483;-57
2023/02/14 01:32:47;;;;;;;26.77;12.48;;;-1.20;1.00;;;;;;5049202;28;20376;-57
2023/02/14 01:35:13;;;;;;;27.98;12.25;;;0.80;1.00;;;;;;5048477;28;20378;-57
2023/02/14 01:37:38;;;;;;;29.37;10.97;;;0.80;1.00;;;;;;5049809;28;20993;-57
2023/02/14 01:40:07;;;;;;;27.97;10.80;;;0.80;1.00;;;;;;5048785;28;20378;-57
2023/02/14 01:42:34;;;;;;;28.17;11.18;;;0.80;1.00;;;;;;5049432;28;20390;-57
2023/02/14 01:45:18;;;;;;;30.40;11.40;;;0.80;1.00;;;;;;5049126;28;20416;-57
2023/02/14 01:47:47;;;;;;;28.85;11.35;;;0.80;1.00;;;;;;5049202;28;20406;-57
2023/02/14 01:50:22;;;;;;;25.43;11.30;;;0.80;1.00;;;;;;5048657;28;20385;-57
2023/02/14 01:53:01;;;;;;;27.95;12.15;;;0.80;1.00;;;;;;5049163;28;20384;-57
2023/02/14 01:55:31;;;;;;;29.60;12.40;;;0.80;1.00;;;;;;5049225;28;20424;-57
2023/02/14 01:58:00;;;;;;;28.48;11.73;;;0.90;1.00;;;;;;5049387;28;20396;-57
2023/02/14 02:03:12;;;;;;;29.23;12.07;;;0.80;1.00;;;;;;5048703;28;20471;-57
2023/02/14 02:05:43;;;;;;;29.05;11.88;;;0.90;1.00;;;;;;5049081;28;20419;-57
2023/02/14 02:08:09;;;;;;;29.50;12.68;;;0.80;1.00;;;;;;5048763;28;20496;-57
2023/02/14 02:10:35;;;;;;;32.88;11.75;;;0.90;1.00;;;;;;5049665;28;20373;-57
2023/02/14 02:13:06;;;;;;;32.67;13.80;;;0.80;1.00;;;;;;5048439;28;20401;-57
2023/02/14 02:15:45;;;;;;;36.08;12.48;;;0.80;1.00;;;;;;5047907;28;20431;-57
2023/02/14 02:18:18;;;;;;;30.02;12.52;;;2.30;99.90;;;;;;5048436;28;20393;-57
2023/02/14 02:21:22;;;;;;;28.20;12.25;;;0.60;1.00;;;;;;5048735;28;20443;-57
2023/02/14 02:23:56;;;;;;;32.85;11.27;;;0.60;1.00;;;;;;5048897;28;20436;-57
2023/02/14 02:26:49;;;;;;;36.72;14.23;;;0.60;1.00;;;;;;5047766;28;20739;-57
2023/02/14 02:29:33;;;;;;;32.78;11.63;;;0.60;1.00;;;;;;5048434;28;20954;-57
2023/02/14 02:32:15;;;;;;;32.65;13.57;;;0.60;1.00;;;;;;5048645;28;20477;-57
2023/02/14 02:35:14;;;;;;;27.38;13.02;;;0.60;1.00;;;;;;5048576;28;20365;-57
2023/02/14 02:37:54;;;;;;;41.03;14.85;;;0.60;1.00;;;;;;5047955;28;20398;-57
2023/02/14 02:40:41;;;;;;;30.23;14.00;;;0.60;1.00;;;;;;5048204;28;20531;-57
2023/02/14 02:43:20;;;;;;;36.10;14.35;;;0.60;1.00;;;;;;5048552;28;20473;-57
2023/02/14 02:48:52;;;;;;;27.00;11.90;;;0.60;1.00;;;;;;5052480;28;20381;-57
2023/02/14 02:54:33;;;;;;;27.60;11.98;;;0.50;1.00;;;;;;5051648;28;20408;-57
2023/02/14 02:57:02;;;;;;;28.58;11.98;;;0.50;1.00;;;;;;5052462;28;20447;-57
2023/02/14 02:59:31;;;;;;;33.30;11.90;;;0.40;1.00;;;;;;5052611;28;20395;-57
2023/02/14 03:02:04;;;;;;;31.92;11.77;;;0.40;99.90;;;;;;5052250;28;20400;-57
2023/02/14 03:04:52;;;;;;;30.83;11.30;;;0.40;1.00;;;;;;5052496;28;20389;-57
2023/02/14 03:07:39;;;;;;;29.63;12.52;;;0.40;1.00;;;;;;5051325;28;20412;-57
2023/02/14 03:10:12;;;;;;;35.57;13.57;;;0.40;1.00;;;;;;5068746;28;20384;-57
2023/02/14 03:13:11;;;;;;;27.87;12.80;;;0.40;1.00;;;;;;5072248;28;20391;-57
2023/02/14 03:16:05;;;;;;;32.13;12.45;;;0.40;1.00;;;;;;5071832;28;20383;-57
2023/02/14 03:18:50;;;;;;;33.33;11.93;;;0.40;1.00;;;;;;5071896;28;20380;-57
2023/02/14 03:21:25;;;;;;;24.88;13.05;;;0.40;1.00;;;;;;5071510;28;20446;-57
2023/02/14 03:24:04;;;;;;;34.20;13.98;;;0.50;1.00;;;;;;5071963;28;20368;-57
2023/02/14 03:26:32;;;;;;;29.63;12.77;;;0.50;1.00;;;;;;5071935;28;20412;-57
2023/02/14 03:29:19;;;;;;;29.23;12.27;;;0.40;1.00;;;;;;5072015;28;20411;-57
2023/02/14 03:32:02;;;;;;;30.27;12.05;;;0.40;1.00;;;;;;5071844;28;20410;-57
2023/02/14 03:34:36;;;;;;;36.85;13.77;;;0.30;1.00;;;;;;5071973;28;20463;-57
2023/02/14 03:37:07;;;;;;;30.80;11.83;;;0.30;1.00;;;;;;5071384;28;20387;-57
2023/02/14 03:40:07;;;;;;;30.33;12.88;;;0.30;1.00;;;;;;5071493;28;20513;-57
2023/02/14 03:42:39;;;;;;;31.93;11.80;;;0.30;1.00;;;;;;5071422;28;20395;-58
2023/02/14 03:45:09;;;;;;;28.52;10.63;;;0.30;1.00;;;;;;5070923;28;20376;-58
2023/02/14 03:47:36;;;;;;;30.52;11.60;;;0.10;1.00;;;;;;5071583;28;20424;-57
2023/02/14 03:50:09;;;;;;;30.48;12.35;;;0.20;1.00;;;;;;5070261;28;20453;-58
2023/02/14 03:52:36;;;;;;;28.17;12.15;;;0.20;1.00;;;;;;5071353;28;20376;-57
2023/02/14 03:55:05;;;;;;;28.30;11.20;;;0.20;1.00;;;;;;5071239;28;20374;-57
2023/02/14 03:57:39;;;;;;;30.17;11.80;;;0.20;1.00;;;;;;5070663;28;20384;-61
2023/02/14 04:00:05;;;;;;;28.48;11.18;;;0.20;1.00;;;;;;5069792;28;20395;-57
2023/02/14 04:02:48;;;;;;;26.83;11.65;;;0.10;1.00;;;;;;5070739;28;20463;-57
2023/02/14 04:05:21;;;;;;;25.38;11.50;;;0.20;1.00;;;;;;5070273;28;20403;-57
2023/02/14 04:07:52;;;;;;;25.27;10.90;;;0.10;1.00;;;;;;5070876;28;20412;-57
2023/02/14 04:10:19;;;;;;;28.25;10.73;;;0.10;1.00;;;;;;5070407;28;20744;-58
2023/02/14 04:12:46;;;;;;;27.90;10.70;;;0.20;1.00;;;;;;5071073;28;20830;-57
2023/02/14 04:15:12;;;;;;;27.95;11.95;;;0.10;1.00;;;;;;5070325;28;20400;-58
2023/02/14 04:20:23;;;;;;;27.85;11.25;;;0.20;1.00;;;;;;5070420;28;20466;-57
2023/02/14 04:22:50;;;;;;;31.75;12.63;;;0.20;1.00;;;;;;5070774;28;20377;-57
2023/02/14 04:25:17;;;;;;;26.92;12.15;;;2.10;1.00;;;;;;5069789;28;20415;-58
2023/02/14 04:27:44;;;;;;;29.33;12.50;;;0.20;1.00;;;;;;5070644;28;20419;-58
2023/02/14 04:30:11;;;;;;;27.55;12.07;;;0.20;1.00;;;;;;5069710;28;20400;-57
2023/02/14 04:32:38;;;;;;;34.13;12.65;;;0.20;1.00;;;;;;5070190;28;20376;-57
2023/02/14 04:35:04;;;;;;;34.72;11.88;;;0.20;1.00;;;;;;5070098;28;20380;-57
2023/02/14 04:37:29;;;;;;;36.03;13.93;;;0.20;99.90;;;;;;5068788;28;20524;-57
2023/02/14 04:39:55;;;;;;;42.25;17.50;;;0.30;99.90;;;;;;5070777;28;20372;-57
2023/02/14 04:42:21;;;;;;;46.87;19.70;;;0.20;99.90;;;;;;5081575;28;20738;-57
2023/02/14 04:44:46;;;;;;;48.35;21.13;;;0.20;99.90;;;;;;5089533;28;20382;-57
2023/02/14 04:47:12;;;;;;;32.72;14.10;;;0.20;99.90;;;;;;5089644;28;20785;-58
2023/02/14 04:49:37;;;;;;;33.30;14.53;;;0.20;99.90;;;;;;5090433;28;20382;-57
2023/02/14 04:52:04;;;;;;;25.27;10.97;;;0.10;99.90;;;;;;5089219;28;20537;-57
2023/02/14 04:54:30;;;;;;;30.45;12.45;;;0.10;99.90;;;;;;5090216;28;20562;-57
2023/02/14 04:56:56;;;;;;;28.40;12.57;;;0.10;99.90;;;;;;5089827;28;20841;-57
2023/02/14 04:59:21;;;;;;;28.10;12.27;;;0.10;99.90;;;;;;5089793;28;20387;-55
2023/02/14 05:01:47;;;;;;;31.50;12.45;;;0.20;99.90;;;;;;5089363;28;20417;-56
2023/02/14 05:04:13;;;;;;;31.77;13.88;;;0.20;99.90;;;;;;5088981;28;20400;-56
2023/02/14 05:06:39;;;;;;;27.50;12.32;;;0.20;99.90;;;;;;5090196;28;20406;-57
2023/02/14 05:09:04;;;;;;;32.58;12.10;;;0.10;99.90;;;;;;5088343;28;20486;-58
2023/02/14 05:11:30;;;;;;;26.97;10.97;;;1.00;99.90;;;;;;5089944;28;20389;-58
2023/02/14 05:13:56;;;;;;;27.20;10.77;;;0.20;99.90;;;;;;5089580;28;20461;-58
2023/02/14 05:16:23;;;;;;;27.40;11.97;;;0.20;99.90;;;;;;5088838;28;20493;-57
2023/02/14 05:18:48;;;;;;;28.65;11.02;;;0.10;99.90;;;;;;5089499;28;20459;-57
2023/02/14 05:21:14;;;;;;;33.70;12.73;;;0.10;99.90;;;;;;5089182;28;20433;-57
2023/02/14 05:23:39;;;;;;;33.43;13.13;;;1.80;99.90;;;;;;5089501;28;20471;-58
2023/02/14 05:26:05;;;;;;;27.90;12.13;;;1.20;99.90;;;;;;5088938;28;20467;-58
2023/02/14 05:28:33;;;;;;;24.10;10.30;;;0.10;99.90;;;;;;5087473;28;20501;-58
2023/02/14 05:30:59;;;;;;;24.35;10.80;;;0.10;99.90;;;;;;5087977;28;20443;-58
2023/02/14 05:33:25;;;;;;;26.63;12.10;;;0.10;99.90;;;;;;5088747;28;20379;-58
2023/02/14 05:35:51;;;;;;;25.00;10.70;;;1.50;99.90;;;;;;5089188;28;20776;-58
2023/02/14 05:38:17;;;;;;;26.00;10.73;;;0.10;99.90;;;;;;5088492;28;20472;-58
2023/02/14 05:40:42;;;;;;;30.13;11.53;;;0.00;99.90;;;;;;5089406;28;20413;-57
2023/02/14 05:43:08;;;;;;;26.55;11.52;;;0.00;99.90;;;;;;5088400;28;20750;-58
2023/02/14 05:45:34;;;;;;;23.27;10.60;;;0.00;99.90;;;;;;5089443;28;20389;-58
2023/02/14 05:47:59;;;;;;;25.58;11.45;;;0.00;99.90;;;;;;5088847;28;20417;-57
2023/02/14 05:50:25;;;;;;;28.33;11.60;;;0.10;99.90;;;;;;5088412;28;20403;-58
2023/02/14 05:52:51;;;;;;;29.40;11.47;;;0.00;99.90;;;;;;5089258;28;20489;-58
2023/02/14 05:55:16;;;;;;;26.52;11.38;;;0.10;99.90;;;;;;5083255;28;20434;-57
2023/02/14 05:57:42;;;;;;;27.53;11.30;;;0.00;99.90;;;;;;5070097;28;20901;-58
2023/02/14 06:00:08;;;;;;;31.83;12.00;;;0.00;99.90;;;;;;5069009;28;20374;-56
2023/02/14 06:02:34;;;;;;;30.80;11.77;;;-0.10;99.90;;;;;;5068047;28;20438;-56
2023/02/14 06:04:59;;;;;;;26.00;10.80;;;-0.10;99.90;;;;;;5058390;28;20416;-56
2023/02/14 06:07:25;;;;;;;28.88;11.35;;;-0.10;99.90;;;;;;5079406;28;20409;-56
2023/02/14 06:09:51;;;;;;;25.90;10.67;;;0.00;99.90;;;;;;5072870;28;20383;-56
2023/02/14 06:12:16;;;;;;;22.20;10.27;;;0.00;99.90;;;;;;5068722;28;20411;-56
2023/02/14 06:14:42;;;;;;;26.90;11.50;;;0.00;99.90;;;;;;5061625;28;20930;-58
2023/02/14 06:17:09;;;;;;;28.60;12.00;;;0.00;99.90;;;;;;5048623;28;20390;-56
2023/02/14 06:19:35;;;;;;;25.17;10.32;;;-0.10;99.90;;;;;;5069424;28;20443;-57
2023/02/14 06:22:01;;;;;;;29.45;11.90;;;0.00;99.90;;;;;;5085481;28;20401;-57
2023/02/14 06:24:30;;;;;;;31.47;11.40;;;0.00;99.90;;;;;;5090267;28;20401;-56
2023/02/14 06:26:57;;;;;;;28.67;10.93;;;-0.10;99.90;;;;;;5092651;28;20417;-56
2023/02/14 06:29:22;;;;;;;29.17;12.93;;;0.00;99.90;;;;;;5092384;28;20481;-57
2023/02/14 06:31:48;;;;;;;29.80;12.07;;;0.00;99.90;;;;;;5092536;28;20461;-57
2023/02/14 06:34:14;;;;;;;28.40;12.48;;;0.00;99.90;;;;;;5077768;28;20471;-56
2023/02/14 06:36:39;;;;;;;30.03;11.80;;;0.00;99.90;;;;;;5089374;28;20502;-56
2023/02/14 06:39:05;;;;;;;26.37;10.50;;;0.00;99.90;;;;;;5092215;28;20382;-56
2023/02/14 06:41:30;;;;;;;24.52;10.75;;;-0.10;99.90;;;;;;5059025;28;20388;-57
2023/02/14 06:43:56;;;;;;;26.73;10.97;;;-0.10;99.90;;;;;;5053158;28;20417;-56
2023/02/14 06:46:22;;;;;;;23.33;10.38;;;-0.10;99.90;;;;;;5051877;28;20447;-56
2023/02/14 06:48:47;;;;;;;26.88;10.55;;;0.00;99.90;;;;;;5052211;28;20484;-56
2023/02/14 06:51:13;;;;;;;29.00;12.43;;;1.90;99.90;;;;;;5051895;28;20419;-56
2023/02/14 06:53:39;;;;;;;25.40;11.00;;;0.20;99.90;;;;;;5052396;28;20382;-57
2023/02/14 06:56:05;;;;;;;27.88;11.45;;;0.30;99.90;;;;;;5052394;28;20404;-56
2023/02/14 06:58:31;;;;;;;24.58;11.60;;;0.30;99.90;;;;;;5051624;28;20476;-57
2023/02/14 07:00:58;;;;;;;28.93;10.97;;;0.40;99.90;;;;;;5052426;28;20431;-56
2023/02/14 07:03:24;;;;;;;24.92;11.35;;;0.40;99.90;;;;;;5052413;28;20494;-56
2023/02/14 07:05:51;;;;;;;27.27;10.90;;;0.40;99.90;;;;;;5066073;28;20461;-57
2023/02/14 07:08:17;;;;;;;26.25;11.02;;;0.50;99.90;;;;;;5072209;28;20407;-56
2023/02/14 07:10:42;;;;;;;25.38;10.35;;;0.40;99.90;;;;;;5070697;28;20764;-57
2023/02/14 07:13:08;;;;;;;28.92;11.10;;;0.50;99.90;;;;;;5071358;28;20455;-57
2023/02/14 07:15:34;;;;;;;25.47;10.90;;;0.50;99.90;;;;;;5070770;28;20406;-57
2023/02/14 07:17:59;;;;;;;29.42;11.43;;;0.60;99.90;;;;;;5072000;28;20560;-57
2023/02/14 07:20:25;;;;;;;26.90;12.43;;;0.70;99.90;;;;;;5071111;28;20392;-57
2023/02/14 07:22:51;;;;;;;26.33;12.40;;;0.80;99.90;;;;;;5071843;28;20379;-57
2023/02/14 07:25:16;;;;;;;30.20;12.57;;;0.90;99.90;;;;;;5070865;28;20422;-57
2023/02/14 07:27:42;;;;;;;30.87;13.33;;;1.00;51.10;;;;;;5072065;28;20507;-56
2023/02/14 07:30:09;;;;;;;30.52;12.32;;;1.10;99.90;;;;;;5071669;28;20407;-56
2023/02/14 07:32:37;;;;;;;33.00;13.48;;;1.50;99.90;;;;;;5070866;28;20388;-55
2023/02/14 07:35:03;;;;;;;33.22;14.77;;;2.20;1.00;;;;;;5071751;28;20427;-55
2023/02/14 07:37:30;;;;;;;27.70;12.32;;;3.50;99.90;;;;;;5070956;28;20455;-57
2023/02/14 07:39:56;;;;;;;26.45;10.85;;;4.80;1.00;;;;;;5071838;28;20376;-57
2023/02/14 07:42:21;;;;;;;23.33;10.47;;;6.70;99.90;;;;;;5070982;28;20391;-57
2023/02/14 07:44:47;;;;;;;23.80;10.80;;;7.80;1.00;;;;;;5071434;28;20445;-57
2023/02/14 07:47:12;;;;;;;21.13;9.93;;;7.50;1.00;;;;;;5070333;28;20435;-56
2023/02/14 07:49:38;;;;;;;25.50;11.10;;;8.30;1.00;;;;;;5071351;28;20457;-56
2023/02/14 07:52:04;;;;;;;22.88;10.93;;;8.40;1.00;;;;;;5071517;28;20383;-56
2023/02/14 07:54:30;;;;;;;22.48;9.85;;;8.20;1.00;;;;;;5070773;28;20384;-57
2023/02/14 07:56:55;;;;;;;23.88;10.25;;;8.50;1.00;;;;;;5069933;28;20429;-57
2023/02/14 07:59:22;;;;;;;21.83;10.25;;;8.70;99.90;;;;;;5070584;28;20392;-59
2023/02/14 08:01:48;;;;;;;25.37;10.60;;;9.30;99.90;;;;;;5071047;28;20387;-59
2023/02/14 08:04:13;;;;;;;21.60;10.45;;;9.40;99.90;;;;;;5070415;28;20386;-58
2023/02/14 08:06:40;;;;;;;25.00;11.00;;;9.10;99.90;;;;;;5070895;28;20411;-58
2023/02/14 08:09:06;;;;;;;24.43;10.90;;;9.30;99.90;;;;;;5070654;28;20396;-59
2023/02/14 08:14:16;;;;;;;29.17;12.30;;;9.60;99.90;;;;;;5070225;28;20391;-58
2023/02/14 08:16:42;;;;;;;25.20;10.80;;;10.00;99.90;;;;;;5070403;28;20395;-59
2023/02/14 08:19:07;;;;;;;26.27;11.67;;;10.50;99.90;;;;;;5070663;28;20485;-58
2023/02/14 08:21:33;;;;;;;25.73;11.35;;;10.40;99.90;;;;;;5070189;28;20384;-59
2023/02/14 08:23:59;;;;;;;25.40;11.10;;;10.20;99.90;;;;;;5069429;28;20383;-59
2023/02/14 08:26:24;;;;;;;25.42;12.23;;;10.50;99.90;;;;;;5069669;28;20507;-58
2023/02/14 08:28:50;;;;;;;23.60;11.30;;;11.20;99.90;;;;;;5070726;28;20401;-58
2023/02/14 08:31:30;;;;;;;23.93;11.37;;;11.50;99.90;;;;;;5069785;28;20387;-59
2023/02/14 08:33:56;;;;;;;23.52;11.77;;;11.90;99.90;;;;;;5070856;28;20430;-60
2023/02/14 08:36:22;;;;;;;26.33;11.97;;;11.80;99.90;;;;;;5068714;28;20384;-59
2023/02/14 08:38:48;;;;;;;24.63;10.90;;;12.20;99.90;;;;;;5069280;28;20382;-59
2023/02/14 08:41:15;;;;;;;26.70;12.35;;;11.90;99.90;;;;;;5069614;28;20372;-59
2023/02/14 08:43:41;;;;;;;26.80;11.80;;;12.40;99.90;;;;;;5069547;28;20384;-59
2023/02/14 08:46:06;;;;;;;21.95;10.88;;;12.90;99.90;;;;;;5070390;28;20434;-59
2023/02/14 08:48:34;;;;;;;22.65;12.40;;;13.20;99.90;;;;;;5070444;28;20444;-59
2023/02/14 08:51:05;;;;;;;26.88;14.85;;;13.20;99.90;;;;;;5070651;28;20380;-59
2023/02/14 08:53:30;;;;;;;26.67;15.70;;;13.70;99.90;;;;;;5069899;28;20417;-59
2023/02/14 08:56:00;;;;;;;26.00;15.60;;;13.90;99.90;;;;;;5070225;28;20796;-58
2023/02/14 08:58:26;;;;;;;26.40;15.60;;;13.80;99.90;;;;;;5070125;28;20431;-59
2023/02/14 09:00:51;;;;;;;27.37;15.43;;;14.30;99.90;;;;;;5070767;28;21071;-58
2023/02/14 09:03:17;;;;;;;26.67;15.70;;;;;;;;;;5069370;28;20760;-58
2023/02/14 09:05:43;;;;;;;22.98;15.15;;;14.90;99.90;;;;;;5070691;28;20399;-57
2023/02/14 09:08:08;;;;;;;25.50;16.40;;;14.90;99.90;;;;;;5069097;28;20408;-57
2023/02/14 09:10:35;;;;;;;28.98;18.63;;;15.20;99.90;;;;;;5069716;28;20891;-57
2023/02/14 09:13:01;;;;;;;27.40;19.15;;;15.40;99.90;;;;;;5069936;28;20388;-57
2023/02/14 09:15:27;;;;;;;26.10;18.60;;;15.20;99.90;;;;;;5069561;28;20445;-57
2023/02/14 09:17:53;;;;;;;26.47;18.60;;;14.80;99.90;;;;;;5069811;28;20380;-59
2023/02/14 09:20:18;;;;;;;23.23;17.57;;;14.20;99.90;;;;;;5069304;28;20387;-58
2023/02/14 09:22:44;;;;;;;26.23;17.83;;;14.50;99.90;;;;;;5069346;28;20391;-57
2023/02/14 09:25:10;;;;;;;24.40;16.80;;;14.60;99.90;;;;;;5069028;28;20498;-57
2023/02/14 09:27:36;;;;;;;27.00;16.80;;;14.40;99.90;;;;;;5069628;28;20938;-59
2023/02/14 09:30:02;;;;;;;28.30;17.07;;;13.90;99.90;;;;;;5069473;28;20760;-59
2023/02/14 09:32:28;;;;;;;26.83;16.73;;;13.90;99.90;;;;;;5069214;28;20367;-59
2023/02/14 09:34:59;;;;;;;24.77;16.25;;;14.00;99.90;;;;;;5070282;28;20479;-57
2023/02/14 09:37:37;;;;;;;27.58;17.45;;;14.80;99.90;;;;;;5068726;28;20462;-57
2023/02/14 09:40:03;;;;;;;26.02;18.55;;;15.30;99.90;;;;;;5069714;28;20388;-58
2023/02/14 09:42:34;;;;;;;26.88;20.35;;;15.90;99.90;;;;;;5068875;28;20389;-57
2023/02/14 09:45:05;;;;;;;25.55;19.55;;;15.80;99.90;;;;;;5070018;28;20371;-57
2023/02/14 09:48:02;;;;;;;24.98;20.48;;;16.10;99.90;;;;;;5068895;28;20453;-59
2023/02/14 09:50:50;;;;;;;27.00;22.13;;;16.80;99.90;;;;;;5069637;28;20802;-58
2023/02/14 09:53:28;;;;;;;26.17;21.52;;;17.10;99.90;;;;;;5068781;28;20380;-57
2023/02/14 09:55:57;;;;;;;29.20;21.67;;;17.10;99.90;;;;;;5073410;28;20468;-57
2023/02/14 09:58:27;;;;;;;27.13;22.67;;;;;;;;;;5073170;28;20402;-57
2023/02/14 10:01:27;;;;;;;25.75;22.25;;;17.00;99.90;;;;;;5073732;28;20387;-58
2023/02/14 10:04:16;;;;;;;27.15;22.10;;;17.30;99.90;;;;;;5073546;28;20392;-57
2023/02/14 10:07:18;;;;;;;27.50;21.13;;;16.90;99.90;;;;;;5073526;28;20456;-57
2023/02/14 10:09:53;;;;;;;30.08;23.15;;;16.90;99.90;;;;;;5073491;28;20375;-57
2023/02/14 10:12:42;;;;;;;25.88;22.60;;;16.90;99.90;;;;;;5072478;28;20434;-58
2023/02/14 10:15:16;;;;;;;25.25;21.65;;;17.00;99.90;;;;;;5073298;28;20380;-57
2023/02/14 10:17:56;;;;;;;27.83;21.30;;;17.00;99.90;;;;;;5073505;28;20407;-57
2023/02/14 10:20:31;;;;;;;28.53;21.93;;;17.10;99.90;;;;;;5072651;28;20376;-57
2023/02/14 10:22:56;;;;;;;26.30;21.40;;;17.10;99.90;;;;;;5073210;28;20378;-57
2023/02/14 10:25:36;;;;;;;29.90;22.45;;;17.20;99.90;;;;;;5072479;28;20497;-58
2023/02/14 10:28:02;;;;;;;28.35;21.95;;;17.20;99.90;;;;;;5073100;28;20439;-57
2023/02/14 10:30:37;;;;;;;27.10;21.60;;;17.40;99.90;;;;;;5072324;28;20391;-57
2023/02/14 10:33:16;;;;;;;25.23;21.52;;;17.90;99.90;;;;;;5073207;28;20401;-57
2023/02/14 10:35:47;;;;;;;25.27;22.17;;;18.00;99.90;;;;;;5072803;28;20776;-57
2023/02/14 10:38:18;;;;;;;26.73;20.67;;;17.80;99.90;;;;;;5072206;28;20391;-57
2023/02/14 10:40:53;;;;;;;31.73;22.58;;;17.60;99.90;;;;;;5072779;28;20386;-57
2023/02/14 10:43:53;;;;;;;27.55;22.27;;;17.20;99.90;;;;;;5072027;28;20395;-57
2023/02/14 10:46:35;;;;;;;26.33;20.30;;;17.20;99.90;;;;;;5066269;28;20400;-57
2023/02/14 10:49:03;;;;;;;28.20;21.10;;;16.60;99.90;;;;;;5072494;28;20380;-57
2023/02/14 10:51:37;;;;;;;28.00;21.20;;;17.00;99.90;;;;;;5071991;28;20392;-57
2023/02/14 10:54:19;;;;;;;30.88;21.60;;;17.20;99.90;;;;;;5072649;28;20458;-57
2023/02/14 10:57:02;;;;;;;27.13;21.70;;;17.20;99.90;;;;;;5072340;28;20388;-57
2023/02/14 10:59:38;;;;;;;27.42;21.27;;;17.30;99.90;;;;;;5071570;28;20745;-57
2023/02/14 11:02:07;;;;;;;25.30;21.73;;;17.90;99.90;;;;;;5072571;28;20384;-57
2023/02/14 11:04:34;;;;;;;26.48;21.40;;;18.00;99.90;;;;;;5071887;28;20388;-57
2023/02/14 11:06:59;;;;;;;28.63;22.50;;;18.10;99.90;;;;;;5071265;28;20960;-57
2023/02/14 11:09:25;;;;;;;26.73;20.90;;;17.70;99.90;;;;;;5071511;28;20471;-57
2023/02/14 11:11:58;;;;;;;26.37;20.60;;;16.40;99.90;;;;;;5072308;28;20715;-57
2023/02/14 11:14:28;;;;;;;28.90;20.40;;;16.10;99.90;;;;;;5071526;28;20415;-57
2023/02/14 11:16:55;;;;;;;25.98;20.10;;;16.70;99.90;;;;;;5072435;28;20400;-58
2023/02/14 11:19:29;;;;;;;28.20;22.20;;;17.20;99.90;;;;;;5071252;28;20379;-57
2023/02/14 11:21:58;;;;;;;29.20;21.92;;;18.10;99.90;;;;;;5071885;28;20416;-57
2023/02/14 11:24:28;;;;;;;26.40;20.70;;;18.10;99.90;;;;;;5070881;28;20392;-57
2023/02/14 11:27:01;;;;;;;27.00;21.05;;;18.10;99.90;;;;;;5071686;28;20554;-57
2023/02/14 11:29:47;;;;;;;24.92;21.10;;;18.30;99.90;;;;;;5071873;28;20376;-57
2023/02/14 11:32:18;;;;;;;27.13;22.20;;;18.60;99.90;;;;;;5071357;28;20398;-57
2023/02/14 11:34:45;;;;;;;24.63;21.98;;;18.10;99.90;;;;;;5072342;28;20388;-57
2023/02/14 11:37:23;;;;;;;27.85;22.20;;;17.20;99.90;;;;;;5071400;28;20388;-57
2023/02/14 11:39:50;;;;;;;28.65;22.25;;;17.00;99.90;;;;;;5071907;28;20380;-57
2023/02/14 11:42:42;;;;;;;25.70;20.30;;;16.50;99.90;;;;;;5070574;28;20719;-57
2023/02/14 11:45:28;;;;;;;25.23;19.50;;;15.80;99.90;;;;;;5071525;28;20852;-57
2023/02/14 11:48:19;;;;;;;26.10;20.50;;;14.60;99.90;;;;;;5071868;28;20408;-58
2023/02/14 11:51:12;;;;;;;28.17;20.10;;;13.70;99.90;;;;;;5071635;28;20457;-59
2023/02/14 11:53:59;;;;;;;27.35;19.17;;;13.50;99.90;;;;;;5071356;28;20545;-57
2023/02/14 11:56:44;;;;;;;27.65;17.42;;;13.80;99.90;;;;;;5070718;28;20391;-57
2023/02/14 11:59:18;;;;;;;28.75;17.67;;;13.60;99.90;;;;;;5071467;28;20403;-58
2023/02/14 12:01:45;;;;;;;25.25;16.23;;;13.50;99.90;;;;;;5071768;28;20376;-57
2023/02/14 12:04:21;;;;;;;25.98;16.75;;;12.90;99.90;;;;;;5070541;28;20373;-56
2023/02/14 12:06:47;;;;;;;27.77;17.55;;;12.90;99.90;;;;;;5071355;28;20414;-57
2023/02/14 12:09:21;;;;;;;26.67;17.08;;;12.60;99.90;;;;;;5070275;28;20387;-57
2023/02/14 12:12:17;;;;;;;26.70;16.50;;;12.70;99.90;;;;;;5070874;28;20411;-57
2023/02/14 12:14:43;;;;;;;25.97;16.60;;;12.50;99.90;;;;;;5070617;28;20495;-57
2023/02/14 12:17:23;;;;;;;28.67;17.42;;;12.50;99.90;;;;;;5070646;28;20388;-57
2023/02/14 12:20:15;;;;;;;28.00;16.52;;;12.50;99.90;;;;;;5070858;28;20402;-57
2023/02/14 12:22:48;;;;;;;23.92;16.00;;;12.40;99.90;;;;;;5070552;28;20767;-59
2023/02/14 12:25:46;;;;;;;27.98;15.80;;;12.50;99.90;;;;;;5070169;28;20411;-58
2023/02/14 12:28:16;;;;;;;25.55;15.50;;;12.40;99.90;;;;;;5055392;28;20418;-57
2023/02/14 12:30:41;;;;;;;24.02;14.23;;;12.20;99.90;;;;;;5070329;28;20379;-57
2023/02/14 12:33:22;;;;;;;27.03;14.70;;;12.10;99.90;;;;;;5070758;28;20380;-57
2023/02/14 12:36:36;;;;;;;30.02;15.27;;;12.00;99.90;;;;;;5070282;28;20369;-58
2023/02/14 12:39:15;;;;;;;24.38;14.90;;;12.10;99.90;;;;;;5070377;28;20750;-57
2023/02/14 12:42:10;;;;;;;23.63;13.80;;;12.20;99.90;;;;;;5070470;28;20399;-57
2023/02/14 12:44:48;;;;;;;25.17;14.18;;;12.10;99.90;;;;;;5069557;28;20529;-57
2023/02/14 12:47:17;;;;;;;25.15;14.82;;;12.10;99.90;;;;;;5069923;28;20902;-57
2023/02/14 12:50:16;;;;;;;26.23;14.57;;;12.10;99.90;;;;;;5070767;28;20376;-58
2023/02/14 12:53:16;;;;;;;25.07;14.27;;;14.00;99.90;;;;;;5070519;28;20379;-57
2023/02/14 12:55:50;;;;;;;26.90;14.40;;;12.40;99.90;;;;;;5070353;28;20422;-59
2023/02/14 12:58:22;;;;;;;24.65;14.00;;;12.50;99.90;;;;;;5069130;28;20433;-59
2023/02/14 13:00:54;;;;;;;23.63;14.07;;;12.50;99.90;;;;;;5070229;28;20399;-59
2023/02/14 13:03:35;;;;;;;27.98;13.77;;;12.40;99.90;;;;;;5069486;28;20407;-59
2023/02/14 13:06:17;;;;;;;25.63;14.20;;;12.30;99.90;;;;;;5070082;28;20392;-60
2023/02/14 13:09:00;;;;;;;25.30;14.20;;;12.50;99.90;;;;;;5070436;28;20567;-59
2023/02/14 13:12:08;;;;;;;27.83;14.60;;;12.70;99.90;;;;;;5069455;28;20390;-59
2023/02/14 13:15:03;;;;;;;26.17;14.43;;;12.60;99.90;;;;;;5069482;28;20750;-59
2023/02/14 13:17:40;;;;;;;24.60;13.32;;;12.60;99.90;;;;;;5069245;28;20413;-59